sensor_id;sensor_type;location;lat;lon;timestamp;P1;durP1;ratioP1;P2;durP2;ratioP2
55641;SDS011;41509;53.108;6.100;2024-02-14T00:00:12;7.25;;;4.10;;
55641;SDS011;41509;53.108;6.100;2024-02-14T00:02:41;6.40;;;3.83;;
55641;SDS011;41509;53.108;6.100;2024-02-14T00:05:15;9.43;;;3.95;;
55641;SDS011;41509;53.108;6.100;2024-02-14T00:07:41;5.82;;;3.28;;
55641;SDS011;41509;53.108;6.100;2024-02-14T00:10:06;8.53;;;3.47;;
55641;SDS011;41509;53.108;6.100;2024-02-14T00:12:33;6.32;;;3.88;;
55641;SDS011;41509;53.108;6.100;2024-02-14T00:14:59;10.27;;;4.03;;
55641;SDS011;41509;53.108;6.100;2024-02-14T00:17:24;6.80;;;4.50;;
55641;SDS011;41509;53.108;6.100;2024-02-14T00:19:53;6.25;;;3.67;;
55641;SDS011;41509;53.108;6.100;2024-02-14T00:22:21;5.45;;;3.53;;
55641;SDS011;41509;53.108;6.100;2024-02-14T00:24:47;5.37;;;3.47;;
55641;SDS011;41509;53.108;6.100;2024-02-14T00:27:12;6.90;;;3.97;;
55641;SDS011;41509;53.108;6.100;2024-02-14T00:29:39;6.47;;;4.18;;
55641;SDS011;41509;53.108;6.100;2024-02-14T00:32:05;5.93;;;3.72;;
55641;SDS011;41509;53.108;6.100;2024-02-14T00:34:34;9.30;;;5.03;;
55641;SDS011;41509;53.108;6.100;2024-02-14T00:36:59;5.47;;;3.63;;
55641;SDS011;41509;53.108;6.100;2024-02-14T00:39:25;6.70;;;3.93;;
55641;SDS011;41509;53.108;6.100;2024-02-14T00:41:51;7.17;;;4.33;;
55641;SDS011;41509;53.108;6.100;2024-02-14T00:44:18;5.70;;;3.70;;
55641;SDS011;41509;53.108;6.100;2024-02-14T00:49:12;7.20;;;3.67;;
55641;SDS011;41509;53.108;6.100;2024-02-14T00:51:40;7.70;;;4.30;;
55641;SDS011;41509;53.108;6.100;2024-02-14T00:54:06;6.67;;;4.43;;
55641;SDS011;41509;53.108;6.100;2024-02-14T00:56:33;6.03;;;3.92;;
55641;SDS011;41509;53.108;6.100;2024-02-14T00:58:58;7.17;;;4.20;;
55641;SDS011;41509;53.108;6.100;2024-02-14T01:01:24;6.13;;;3.53;;
55641;SDS011;41509;53.108;6.100;2024-02-14T01:03:55;5.28;;;3.47;;
55641;SDS011;41509;53.108;6.100;2024-02-14T01:06:21;8.23;;;3.10;;
55641;SDS011;41509;53.108;6.100;2024-02-14T01:08:47;4.93;;;3.30;;
55641;SDS011;41509;53.108;6.100;2024-02-14T01:11:12;7.10;;;3.23;;
55641;SDS011;41509;53.108;6.100;2024-02-14T01:13:41;5.10;;;3.00;;
55641;SDS011;41509;53.108;6.100;2024-02-14T01:16:06;4.73;;;2.90;;
55641;SDS011;41509;53.108;6.100;2024-02-14T01:18:32;5.15;;;3.00;;
55641;SDS011;41509;53.108;6.100;2024-02-14T01:20:58;4.93;;;3.20;;
55641;SDS011;41509;53.108;6.100;2024-02-14T01:23:25;4.40;;;2.90;;
55641;SDS011;41509;53.108;6.100;2024-02-14T01:25:51;4.72;;;2.95;;
55641;SDS011;41509;53.108;6.100;2024-02-14T01:28:19;4.60;;;3.25;;
55641;SDS011;41509;53.108;6.100;2024-02-14T01:30:45;5.00;;;3.13;;
55641;SDS011;41509;53.108;6.100;2024-02-14T01:33:14;6.70;;;3.07;;
55641;SDS011;41509;53.108;6.100;2024-02-14T01:35:41;4.25;;;2.92;;
55641;SDS011;41509;53.108;6.100;2024-02-14T01:38:07;5.47;;;3.45;;
55641;SDS011;41509;53.108;6.100;2024-02-14T01:40:33;4.80;;;2.97;;
55641;SDS011;41509;53.108;6.100;2024-02-14T01:42:59;4.80;;;2.80;;
55641;SDS011;41509;53.108;6.100;2024-02-14T01:45:25;4.75;;;2.85;;
55641;SDS011;41509;53.108;6.100;2024-02-14T01:47:52;3.70;;;2.53;;
55641;SDS011;41509;53.108;6.100;2024-02-14T01:50:18;4.38;;;2.60;;
55641;SDS011;41509;53.108;6.100;2024-02-14T01:52:53;4.05;;;2.83;;
55641;SDS011;41509;53.108;6.100;2024-02-14T01:55:20;4.30;;;2.20;;
55641;SDS011;41509;53.108;6.100;2024-02-14T01:57:46;4.45;;;2.55;;
55641;SDS011;41509;53.108;6.100;2024-02-14T02:00:13;3.53;;;2.45;;
55641;SDS011;41509;53.108;6.100;2024-02-14T02:02:43;3.80;;;2.53;;
55641;SDS011;41509;53.108;6.100;2024-02-14T02:05:09;4.68;;;2.65;;
55641;SDS011;41509;53.108;6.100;2024-02-14T02:07:38;4.45;;;2.58;;
55641;SDS011;41509;53.108;6.100;2024-02-14T02:10:08;4.43;;;2.85;;
55641;SDS011;41509;53.108;6.100;2024-02-14T02:12:37;4.25;;;2.80;;
55641;SDS011;41509;53.108;6.100;2024-02-14T02:15:06;4.03;;;2.60;;
55641;SDS011;41509;53.108;6.100;2024-02-14T02:17:36;4.18;;;2.72;;
55641;SDS011;41509;53.108;6.100;2024-02-14T02:20:01;4.63;;;3.03;;
55641;SDS011;41509;53.108;6.100;2024-02-14T02:22:27;4.18;;;3.00;;
55641;SDS011;41509;53.108;6.100;2024-02-14T02:24:57;4.93;;;3.03;;
55641;SDS011;41509;53.108;6.100;2024-02-14T02:27:23;4.07;;;3.00;;
55641;SDS011;41509;53.108;6.100;2024-02-14T02:29:52;5.68;;;3.20;;
55641;SDS011;41509;53.108;6.100;2024-02-14T02:32:17;5.23;;;3.10;;
55641;SDS011;41509;53.108;6.100;2024-02-14T02:34:43;5.43;;;2.80;;
55641;SDS011;41509;53.108;6.100;2024-02-14T02:37:10;4.18;;;2.90;;
55641;SDS011;41509;53.108;6.100;2024-02-14T02:39:36;4.28;;;3.15;;
55641;SDS011;41509;53.108;6.100;2024-02-14T02:42:05;4.35;;;2.90;;
55641;SDS011;41509;53.108;6.100;2024-02-14T02:44:34;5.57;;;3.23;;
55641;SDS011;41509;53.108;6.100;2024-02-14T02:47:01;4.68;;;3.10;;
55641;SDS011;41509;53.108;6.100;2024-02-14T02:49:27;5.40;;;3.20;;
55641;SDS011;41509;53.108;6.100;2024-02-14T02:54:19;5.60;;;3.10;;
55641;SDS011;41509;53.108;6.100;2024-02-14T02:56:48;5.50;;;3.60;;
55641;SDS011;41509;53.108;6.100;2024-02-14T02:59:14;5.22;;;2.85;;
55641;SDS011;41509;53.108;6.100;2024-02-14T03:01:42;4.57;;;3.35;;
55641;SDS011;41509;53.108;6.100;2024-02-14T03:04:09;4.75;;;3.28;;
55641;SDS011;41509;53.108;6.100;2024-02-14T03:06:35;4.87;;;3.03;;
55641;SDS011;41509;53.108;6.100;2024-02-14T03:09:01;4.75;;;2.88;;
55641;SDS011;41509;53.108;6.100;2024-02-14T03:11:27;5.43;;;3.20;;
55641;SDS011;41509;53.108;6.100;2024-02-14T03:13:56;5.38;;;3.40;;
55641;SDS011;41509;53.108;6.100;2024-02-14T03:16:24;4.07;;;2.85;;
55641;SDS011;41509;53.108;6.100;2024-02-14T03:18:51;5.55;;;3.30;;
55641;SDS011;41509;53.108;6.100;2024-02-14T03:21:18;4.15;;;2.90;;
55641;SDS011;41509;53.108;6.100;2024-02-14T03:23:44;5.20;;;3.60;;
55641;SDS011;41509;53.108;6.100;2024-02-14T03:26:11;6.00;;;3.80;;
55641;SDS011;41509;53.108;6.100;2024-02-14T03:28:36;3.67;;;2.53;;
55641;SDS011;41509;53.108;6.100;2024-02-14T03:31:02;4.80;;;3.10;;
55641;SDS011;41509;53.108;6.100;2024-02-14T03:33:27;7.63;;;3.50;;
55641;SDS011;41509;53.108;6.100;2024-02-14T03:35:54;5.82;;;3.83;;
55641;SDS011;41509;53.108;6.100;2024-02-14T03:38:26;4.35;;;2.90;;
55641;SDS011;41509;53.108;6.100;2024-02-14T03:40:53;5.30;;;2.90;;
55641;SDS011;41509;53.108;6.100;2024-02-14T03:43:19;4.78;;;3.28;;
55641;SDS011;41509;53.108;6.100;2024-02-14T03:45:45;5.70;;;3.07;;
55641;SDS011;41509;53.108;6.100;2024-02-14T03:48:11;5.05;;;2.95;;
55641;SDS011;41509;53.108;6.100;2024-02-14T03:50:40;4.28;;;2.80;;
55641;SDS011;41509;53.108;6.100;2024-02-14T03:53:06;4.72;;;3.05;;
55641;SDS011;41509;53.108;6.100;2024-02-14T03:55:32;6.05;;;3.47;;
55641;SDS011;41509;53.108;6.100;2024-02-14T03:58:01;4.82;;;3.20;;
55641;SDS011;41509;53.108;6.100;2024-02-14T04:00:28;4.75;;;2.85;;
55641;SDS011;41509;53.108;6.100;2024-02-14T04:02:54;6.15;;;3.63;;
55641;SDS011;41509;53.108;6.100;2024-02-14T04:05:24;5.05;;;3.15;;
55641;SDS011;41509;53.108;6.100;2024-02-14T04:07:52;6.03;;;3.63;;
55641;SDS011;41509;53.108;6.100;2024-02-14T04:10:19;4.88;;;3.53;;
55641;SDS011;41509;53.108;6.100;2024-02-14T04:12:45;6.03;;;3.83;;
55641;SDS011;41509;53.108;6.100;2024-02-14T04:15:11;6.10;;;3.88;;
55641;SDS011;41509;53.108;6.100;2024-02-14T04:17:37;7.80;;;3.73;;
55641;SDS011;41509;53.108;6.100;2024-02-14T04:20:07;6.07;;;3.78;;
55641;SDS011;41509;53.108;6.100;2024-02-14T04:22:33;9.02;;;3.90;;
55641;SDS011;41509;53.108;6.100;2024-02-14T04:24:59;6.53;;;3.97;;
55641;SDS011;41509;53.108;6.100;2024-02-14T04:27:25;6.47;;;4.00;;
55641;SDS011;41509;53.108;6.100;2024-02-14T04:29:50;7.77;;;3.80;;
55641;SDS011;41509;53.108;6.100;2024-02-14T04:32:16;7.33;;;4.23;;
55641;SDS011;41509;53.108;6.100;2024-02-14T04:34:42;7.03;;;3.85;;
55641;SDS011;41509;53.108;6.100;2024-02-14T04:37:08;6.78;;;3.22;;
55641;SDS011;41509;53.108;6.100;2024-02-14T04:39:39;5.38;;;2.97;;
55641;SDS011;41509;53.108;6.100;2024-02-14T04:42:05;5.65;;;2.97;;
55641;SDS011;41509;53.108;6.100;2024-02-14T04:44:31;5.47;;;2.95;;
55641;SDS011;41509;53.108;6.100;2024-02-14T04:46:57;6.13;;;3.33;;
55641;SDS011;41509;53.108;6.100;2024-02-14T04:49:24;7.85;;;3.40;;
55641;SDS011;41509;53.108;6.100;2024-02-14T04:51:49;8.30;;;3.55;;
55641;SDS011;41509;53.108;6.100;2024-02-14T04:54:21;4.47;;;2.95;;
55641;SDS011;41509;53.108;6.100;2024-02-14T04:56:47;5.63;;;2.97;;
55641;SDS011;41509;53.108;6.100;2024-02-14T04:59:13;5.17;;;2.60;;
55641;SDS011;41509;53.108;6.100;2024-02-14T05:01:38;5.47;;;2.75;;
55641;SDS011;41509;53.108;6.100;2024-02-14T05:04:11;5.47;;;2.38;;
55641;SDS011;41509;53.108;6.100;2024-02-14T05:06:38;7.10;;;2.97;;
55641;SDS011;41509;53.108;6.100;2024-02-14T05:09:07;9.60;;;3.58;;
55641;SDS011;41509;53.108;6.100;2024-02-14T05:11:32;4.57;;;2.92;;
55641;SDS011;41509;53.108;6.100;2024-02-14T05:13:58;13.20;;;3.03;;
55641;SDS011;41509;53.108;6.100;2024-02-14T05:16:26;7.53;;;2.55;;
55641;SDS011;41509;53.108;6.100;2024-02-14T05:18:55;5.55;;;2.70;;
55641;SDS011;41509;53.108;6.100;2024-02-14T05:21:21;5.30;;;2.45;;
55641;SDS011;41509;53.108;6.100;2024-02-14T05:23:47;6.70;;;2.43;;
55641;SDS011;41509;53.108;6.100;2024-02-14T05:26:15;5.80;;;2.30;;
55641;SDS011;41509;53.108;6.100;2024-02-14T05:28:41;5.82;;;2.75;;
55641;SDS011;41509;53.108;6.100;2024-02-14T05:31:07;6.57;;;2.45;;
55641;SDS011;41509;53.108;6.100;2024-02-14T05:33:33;9.48;;;2.67;;
55641;SDS011;41509;53.108;6.100;2024-02-14T05:35:58;7.20;;;2.27;;
55641;SDS011;41509;53.108;6.100;2024-02-14T05:38:26;11.80;;;3.28;;
55641;SDS011;41509;53.108;6.100;2024-02-14T05:40:54;10.52;;;3.33;;
55641;SDS011;41509;53.108;6.100;2024-02-14T05:43:23;19.13;;;3.83;;
55641;SDS011;41509;53.108;6.100;2024-02-14T05:45:49;16.40;;;4.57;;
55641;SDS011;41509;53.108;6.100;2024-02-14T05:48:14;22.60;;;4.00;;
55641;SDS011;41509;53.108;6.100;2024-02-14T05:50:40;29.83;;;4.47;;
55641;SDS011;41509;53.108;6.100;2024-02-14T05:53:05;17.57;;;4.13;;
55641;SDS011;41509;53.108;6.100;2024-02-14T05:55:31;20.23;;;3.77;;
55641;SDS011;41509;53.108;6.100;2024-02-14T05:58:00;29.08;;;4.55;;
55641;SDS011;41509;53.108;6.100;2024-02-14T06:00:26;25.55;;;4.90;;
55641;SDS011;41509;53.108;6.100;2024-02-14T06:02:52;31.17;;;5.17;;
55641;SDS011;41509;53.108;6.100;2024-02-14T06:05:17;23.30;;;4.43;;
55641;SDS011;41509;53.108;6.100;2024-02-14T06:07:45;21.73;;;4.18;;
55641;SDS011;41509;53.108;6.100;2024-02-14T06:10:11;29.23;;;3.70;;
55641;SDS011;41509;53.108;6.100;2024-02-14T06:12:37;26.10;;;4.85;;
55641;SDS011;41509;53.108;6.100;2024-02-14T06:15:06;21.13;;;3.63;;
55641;SDS011;41509;53.108;6.100;2024-02-14T06:17:32;29.27;;;3.85;;
55641;SDS011;41509;53.108;6.100;2024-02-14T06:19:58;18.73;;;4.47;;
55641;SDS011;41509;53.108;6.100;2024-02-14T06:22:25;18.70;;;3.30;;
55641;SDS011;41509;53.108;6.100;2024-02-14T06:24:50;22.33;;;4.15;;
55641;SDS011;41509;53.108;6.100;2024-02-14T06:27:16;21.80;;;4.13;;
55641;SDS011;41509;53.108;6.100;2024-02-14T06:29:42;26.45;;;3.88;;
55641;SDS011;41509;53.108;6.100;2024-02-14T06:32:08;19.75;;;4.63;;
55641;SDS011;41509;53.108;6.100;2024-02-14T06:34:34;20.83;;;3.40;;
55641;SDS011;41509;53.108;6.100;2024-02-14T06:36:59;21.93;;;4.30;;
55641;SDS011;41509;53.108;6.100;2024-02-14T06:39:25;20.93;;;3.63;;
55641;SDS011;41509;53.108;6.100;2024-02-14T06:41:51;34.97;;;5.87;;
55641;SDS011;41509;53.108;6.100;2024-02-14T06:44:16;31.10;;;5.37;;
55641;SDS011;41509;53.108;6.100;2024-02-14T06:49:11;21.10;;;3.97;;
55641;SDS011;41509;53.108;6.100;2024-02-14T06:51:37;23.80;;;4.07;;
55641;SDS011;41509;53.108;6.100;2024-02-14T06:54:05;22.77;;;4.30;;
55641;SDS011;41509;53.108;6.100;2024-02-14T06:56:31;23.70;;;4.68;;
55641;SDS011;41509;53.108;6.100;2024-02-14T06:58:57;28.93;;;4.30;;
55641;SDS011;41509;53.108;6.100;2024-02-14T07:01:28;26.10;;;4.07;;
55641;SDS011;41509;53.108;6.100;2024-02-14T07:03:56;28.55;;;5.88;;
55641;SDS011;41509;53.108;6.100;2024-02-14T07:06:23;28.08;;;3.75;;
55641;SDS011;41509;53.108;6.100;2024-02-14T07:08:48;31.27;;;3.93;;
55641;SDS011;41509;53.108;6.100;2024-02-14T07:11:14;32.20;;;3.20;;
55641;SDS011;41509;53.108;6.100;2024-02-14T07:13:43;31.40;;;5.35;;
55641;SDS011;41509;53.108;6.100;2024-02-14T07:16:08;30.93;;;4.60;;
55641;SDS011;41509;53.108;6.100;2024-02-14T07:18:34;22.97;;;4.23;;
55641;SDS011;41509;53.108;6.100;2024-02-14T07:21:00;29.03;;;4.53;;
55641;SDS011;41509;53.108;6.100;2024-02-14T07:23:26;34.78;;;5.57;;
55641;SDS011;41509;53.108;6.100;2024-02-14T07:25:52;33.67;;;4.82;;
55641;SDS011;41509;53.108;6.100;2024-02-14T07:28:23;26.60;;;4.75;;
55641;SDS011;41509;53.108;6.100;2024-02-14T07:30:48;25.08;;;4.95;;
55641;SDS011;41509;53.108;6.100;2024-02-14T07:33:14;21.50;;;4.03;;
55641;SDS011;41509;53.108;6.100;2024-02-14T07:35:40;28.20;;;4.72;;
55641;SDS011;41509;53.108;6.100;2024-02-14T07:38:07;23.33;;;3.58;;
55641;SDS011;41509;53.108;6.100;2024-02-14T07:40:33;27.98;;;4.75;;
55641;SDS011;41509;53.108;6.100;2024-02-14T07:42:59;34.13;;;4.40;;
55641;SDS011;41509;53.108;6.100;2024-02-14T07:47:51;19.63;;;3.80;;
55641;SDS011;41509;53.108;6.100;2024-02-14T07:50:17;18.85;;;4.18;;
55641;SDS011;41509;53.108;6.100;2024-02-14T07:52:43;30.90;;;4.30;;
55641;SDS011;41509;53.108;6.100;2024-02-14T07:55:10;27.85;;;4.45;;
55641;SDS011;41509;53.108;6.100;2024-02-14T07:57:38;29.20;;;4.22;;
55641;SDS011;41509;53.108;6.100;2024-02-14T08:00:06;28.13;;;4.82;;
55641;SDS011;41509;53.108;6.100;2024-02-14T08:02:35;26.27;;;5.07;;
55641;SDS011;41509;53.108;6.100;2024-02-14T08:05:02;20.05;;;3.83;;
55641;SDS011;41509;53.108;6.100;2024-02-14T08:07:29;31.33;;;5.43;;
55641;SDS011;41509;53.108;6.100;2024-02-14T08:09:55;29.23;;;4.43;;
55641;SDS011;41509;53.108;6.100;2024-02-14T08:12:21;18.63;;;3.95;;
55641;SDS011;41509;53.108;6.100;2024-02-14T08:14:48;18.88;;;4.32;;
55641;SDS011;41509;53.108;6.100;2024-02-14T08:17:13;25.55;;;4.47;;
55641;SDS011;41509;53.108;6.100;2024-02-14T08:19:39;31.83;;;4.53;;
55641;SDS011;41509;53.108;6.100;2024-02-14T08:22:05;28.73;;;4.70;;
55641;SDS011;41509;53.108;6.100;2024-02-14T08:24:32;20.85;;;4.80;;
55641;SDS011;41509;53.108;6.100;2024-02-14T08:26:57;21.87;;;4.80;;
55641;SDS011;41509;53.108;6.100;2024-02-14T08:29:23;17.83;;;4.10;;
55641;SDS011;41509;53.108;6.100;2024-02-14T08:31:49;26.00;;;4.10;;
55641;SDS011;41509;53.108;6.100;2024-02-14T08:34:14;26.77;;;6.15;;
55641;SDS011;41509;53.108;6.100;2024-02-14T08:39:07;19.23;;;4.55;;
55641;SDS011;41509;53.108;6.100;2024-02-14T08:41:35;20.27;;;5.30;;
55641;SDS011;41509;53.108;6.100;2024-02-14T08:44:06;36.60;;;6.47;;
55641;SDS011;41509;53.108;6.100;2024-02-14T08:46:32;28.45;;;6.40;;
55641;SDS011;41509;53.108;6.100;2024-02-14T08:48:59;22.33;;;5.27;;
55641;SDS011;41509;53.108;6.100;2024-02-14T08:51:27;22.50;;;6.22;;
55641;SDS011;41509;53.108;6.100;2024-02-14T08:53:53;28.05;;;6.45;;
55641;SDS011;41509;53.108;6.100;2024-02-14T08:56:20;26.30;;;7.43;;
55641;SDS011;41509;53.108;6.100;2024-02-14T08:58:47;30.23;;;6.88;;
55641;SDS011;41509;53.108;6.100;2024-02-14T09:03:40;17.27;;;5.70;;
55641;SDS011;41509;53.108;6.100;2024-02-14T09:06:13;26.20;;;6.40;;
55641;SDS011;41509;53.108;6.100;2024-02-14T09:08:39;21.10;;;6.13;;
55641;SDS011;41509;53.108;6.100;2024-02-14T09:11:06;34.35;;;7.07;;
55641;SDS011;41509;53.108;6.100;2024-02-14T09:13:31;18.83;;;6.00;;
55641;SDS011;41509;53.108;6.100;2024-02-14T09:15:57;16.60;;;5.70;;
55641;SDS011;41509;53.108;6.100;2024-02-14T09:18:23;21.53;;;5.83;;
55641;SDS011;41509;53.108;6.100;2024-02-14T09:20:50;19.65;;;5.97;;
55641;SDS011;41509;53.108;6.100;2024-02-14T09:23:16;19.60;;;6.43;;
55641;SDS011;41509;53.108;6.100;2024-02-14T09:25:45;24.67;;;6.07;;
55641;SDS011;41509;53.108;6.100;2024-02-14T09:28:12;19.35;;;6.15;;
55641;SDS011;41509;53.108;6.100;2024-02-14T09:30:39;22.25;;;6.68;;
55641;SDS011;41509;53.108;6.100;2024-02-14T09:33:05;23.95;;;5.53;;
55641;SDS011;41509;53.108;6.100;2024-02-14T09:35:30;21.95;;;6.05;;
55641;SDS011;41509;53.108;6.100;2024-02-14T09:37:56;24.83;;;5.20;;
55641;SDS011;41509;53.108;6.100;2024-02-14T09:40:22;19.77;;;5.27;;
55641;SDS011;41509;53.108;6.100;2024-02-14T09:42:55;15.18;;;5.88;;
55641;SDS011;41509;53.108;6.100;2024-02-14T09:45:26;14.70;;;5.15;;
55641;SDS011;41509;53.108;6.100;2024-02-14T09:47:52;22.35;;;5.05;;
55641;SDS011;41509;53.108;6.100;2024-02-14T09:50:19;24.10;;;5.50;;
55641;SDS011;41509;53.108;6.100;2024-02-14T09:52:48;15.32;;;4.75;;
55641;SDS011;41509;53.108;6.100;2024-02-14T09:55:15;15.05;;;5.45;;
55641;SDS011;41509;53.108;6.100;2024-02-14T09:57:41;19.90;;;5.70;;
55641;SDS011;41509;53.108;6.100;2024-02-14T10:00:09;19.20;;;5.63;;
55641;SDS011;41509;53.108;6.100;2024-02-14T10:02:35;14.40;;;4.70;;
55641;SDS011;41509;53.108;6.100;2024-02-14T10:05:01;12.60;;;4.17;;
55641;SDS011;41509;53.108;6.100;2024-02-14T10:07:27;16.53;;;5.20;;
55641;SDS011;41509;53.108;6.100;2024-02-14T10:09:53;10.27;;;4.20;;
55641;SDS011;41509;53.108;6.100;2024-02-14T10:12:19;15.07;;;4.68;;
55641;SDS011;41509;53.108;6.100;2024-02-14T10:14:45;14.27;;;3.88;;
55641;SDS011;41509;53.108;6.100;2024-02-14T10:17:17;11.02;;;3.60;;
55641;SDS011;41509;53.108;6.100;2024-02-14T10:19:54;8.23;;;3.17;;
55641;SDS011;41509;53.108;6.100;2024-02-14T10:22:23;8.30;;;2.85;;
55641;SDS011;41509;53.108;6.100;2024-02-14T10:27:15;7.15;;;2.17;;
55641;SDS011;41509;53.108;6.100;2024-02-14T10:29:41;7.35;;;3.03;;
55641;SDS011;41509;53.108;6.100;2024-02-14T10:32:09;10.55;;;3.38;;
55641;SDS011;41509;53.108;6.100;2024-02-14T10:34:35;9.40;;;3.57;;
55641;SDS011;41509;53.108;6.100;2024-02-14T10:37:04;10.80;;;3.42;;
55641;SDS011;41509;53.108;6.100;2024-02-14T10:39:31;11.63;;;3.83;;
55641;SDS011;41509;53.108;6.100;2024-02-14T10:42:00;10.65;;;5.43;;
55641;SDS011;41509;53.108;6.100;2024-02-14T10:44:26;10.05;;;4.80;;
55641;SDS011;41509;53.108;6.100;2024-02-14T10:46:52;8.05;;;4.45;;
55641;SDS011;41509;53.108;6.100;2024-02-14T10:49:23;7.88;;;3.75;;
55641;SDS011;41509;53.108;6.100;2024-02-14T10:51:52;11.00;;;3.85;;
55641;SDS011;41509;53.108;6.100;2024-02-14T10:56:46;7.15;;;3.25;;
55641;SDS011;41509;53.108;6.100;2024-02-14T10:59:16;6.97;;;4.03;;
55641;SDS011;41509;53.108;6.100;2024-02-14T11:01:44;7.78;;;3.28;;
55641;SDS011;41509;53.108;6.100;2024-02-14T11:04:11;5.65;;;3.00;;
55641;SDS011;41509;53.108;6.100;2024-02-14T11:06:52;8.55;;;2.90;;
55641;SDS011;41509;53.108;6.100;2024-02-14T11:09:31;6.70;;;3.05;;
55641;SDS011;41509;53.108;6.100;2024-02-14T11:12:00;8.10;;;3.15;;
55641;SDS011;41509;53.108;6.100;2024-02-14T11:14:29;4.90;;;2.97;;
55641;SDS011;41509;53.108;6.100;2024-02-14T11:17:00;9.73;;;3.72;;
55641;SDS011;41509;53.108;6.100;2024-02-14T11:19:30;6.38;;;3.80;;
55641;SDS011;41509;53.108;6.100;2024-02-14T11:22:10;6.15;;;3.38;;
55641;SDS011;41509;53.108;6.100;2024-02-14T11:24:46;10.25;;;3.75;;
55641;SDS011;41509;53.108;6.100;2024-02-14T11:27:13;8.00;;;3.55;;
55641;SDS011;41509;53.108;6.100;2024-02-14T11:29:52;9.95;;;3.67;;
55641;SDS011;41509;53.108;6.100;2024-02-14T11:32:18;6.13;;;3.33;;
55641;SDS011;41509;53.108;6.100;2024-02-14T11:34:55;8.60;;;2.58;;
55641;SDS011;41509;53.108;6.100;2024-02-14T11:37:29;11.70;;;3.00;;
55641;SDS011;41509;53.108;6.100;2024-02-14T11:39:56;6.32;;;2.63;;
55641;SDS011;41509;53.108;6.100;2024-02-14T11:42:23;6.22;;;2.67;;
55641;SDS011;41509;53.108;6.100;2024-02-14T11:44:49;5.80;;;2.78;;
55641;SDS011;41509;53.108;6.100;2024-02-14T11:47:15;6.68;;;2.88;;
55641;SDS011;41509;53.108;6.100;2024-02-14T11:49:40;6.03;;;2.70;;
55641;SDS011;41509;53.108;6.100;2024-02-14T11:52:09;5.28;;;2.80;;
55641;SDS011;41509;53.108;6.100;2024-02-14T11:54:36;5.35;;;2.72;;
55641;SDS011;41509;53.108;6.100;2024-02-14T11:59:28;8.85;;;3.35;;
55641;SDS011;41509;53.108;6.100;2024-02-14T12:01:55;7.70;;;3.33;;
55641;SDS011;41509;53.108;6.100;2024-02-14T12:04:23;6.22;;;3.45;;
55641;SDS011;41509;53.108;6.100;2024-02-14T12:06:49;10.70;;;3.45;;
55641;SDS011;41509;53.108;6.100;2024-02-14T12:09:15;6.93;;;3.33;;
55641;SDS011;41509;53.108;6.100;2024-02-14T12:11:41;7.67;;;3.07;;
55641;SDS011;41509;53.108;6.100;2024-02-14T12:14:11;6.60;;;3.28;;
55641;SDS011;41509;53.108;6.100;2024-02-14T12:16:37;6.13;;;3.42;;
55641;SDS011;41509;53.108;6.100;2024-02-14T12:19:08;5.00;;;3.03;;
55641;SDS011;41509;53.108;6.100;2024-02-14T12:21:40;5.47;;;3.17;;
55641;SDS011;41509;53.108;6.100;2024-02-14T12:26:36;5.70;;;2.67;;
55641;SDS011;41509;53.108;6.100;2024-02-14T12:29:02;7.97;;;2.10;;
55641;SDS011;41509;53.108;6.100;2024-02-14T12:31:30;4.38;;;2.47;;
55641;SDS011;41509;53.108;6.100;2024-02-14T12:33:57;5.88;;;2.38;;
55641;SDS011;41509;53.108;6.100;2024-02-14T12:36:25;5.50;;;1.98;;
55641;SDS011;41509;53.108;6.100;2024-02-14T12:38:52;3.63;;;1.90;;
55641;SDS011;41509;53.108;6.100;2024-02-14T12:43:44;3.55;;;2.25;;
55641;SDS011;41509;53.108;6.100;2024-02-14T12:46:10;3.97;;;2.20;;
55641;SDS011;41509;53.108;6.100;2024-02-14T12:48:36;5.23;;;2.63;;
55641;SDS011;41509;53.108;6.100;2024-02-14T12:51:01;4.00;;;2.50;;
55641;SDS011;41509;53.108;6.100;2024-02-14T12:53:27;4.23;;;2.33;;
55641;SDS011;41509;53.108;6.100;2024-02-14T12:55:53;4.53;;;2.43;;
55641;SDS011;41509;53.108;6.100;2024-02-14T12:58:18;6.37;;;2.83;;
55641;SDS011;41509;53.108;6.100;2024-02-14T13:00:44;5.22;;;2.90;;
55641;SDS011;41509;53.108;6.100;2024-02-14T13:03:10;3.83;;;2.63;;
55641;SDS011;41509;53.108;6.100;2024-02-14T13:05:36;5.75;;;3.80;;
55641;SDS011;41509;53.108;6.100;2024-02-14T13:08:02;5.82;;;3.15;;
55641;SDS011;41509;53.108;6.100;2024-02-14T13:10:28;5.68;;;3.45;;
55641;SDS011;41509;53.108;6.100;2024-02-14T13:12:56;6.72;;;3.78;;
55641;SDS011;41509;53.108;6.100;2024-02-14T13:15:22;9.30;;;4.10;;
55641;SDS011;41509;53.108;6.100;2024-02-14T13:17:48;8.03;;;3.90;;
55641;SDS011;41509;53.108;6.100;2024-02-14T13:20:13;8.10;;;4.03;;
55641;SDS011;41509;53.108;6.100;2024-02-14T13:22:40;15.32;;;4.90;;
55641;SDS011;41509;53.108;6.100;2024-02-14T13:25:07;10.43;;;5.10;;
55641;SDS011;41509;53.108;6.100;2024-02-14T13:27:34;8.38;;;4.85;;
55641;SDS011;41509;53.108;6.100;2024-02-14T13:30:00;12.18;;;5.45;;
55641;SDS011;41509;53.108;6.100;2024-02-14T13:34:52;8.32;;;5.05;;
55641;SDS011;41509;53.108;6.100;2024-02-14T13:37:18;10.77;;;5.73;;
55641;SDS011;41509;53.108;6.100;2024-02-14T13:42:10;11.02;;;5.20;;
55641;SDS011;41509;53.108;6.100;2024-02-14T13:44:36;8.48;;;5.20;;
55641;SDS011;41509;53.108;6.100;2024-02-14T13:47:01;7.20;;;4.77;;
55641;SDS011;41509;53.108;6.100;2024-02-14T13:49:28;8.45;;;4.70;;
55641;SDS011;41509;53.108;6.100;2024-02-14T13:51:53;8.67;;;4.53;;
55641;SDS011;41509;53.108;6.100;2024-02-14T13:54:19;8.55;;;4.55;;
55641;SDS011;41509;53.108;6.100;2024-02-14T13:56:49;6.78;;;4.35;;
55641;SDS011;41509;53.108;6.100;2024-02-14T13:59:15;10.55;;;4.28;;
55641;SDS011;41509;53.108;6.100;2024-02-14T14:01:41;6.07;;;4.15;;
55641;SDS011;41509;53.108;6.100;2024-02-14T14:04:06;5.38;;;3.83;;
55641;SDS011;41509;53.108;6.100;2024-02-14T14:06:32;6.78;;;3.85;;
55641;SDS011;41509;53.108;6.100;2024-02-14T14:11:25;6.07;;;3.17;;
55641;SDS011;41509;53.108;6.100;2024-02-14T14:13:50;7.97;;;4.05;;
55641;SDS011;41509;53.108;6.100;2024-02-14T14:16:16;5.40;;;4.00;;
55641;SDS011;41509;53.108;6.100;2024-02-14T14:18:42;5.47;;;3.78;;
55641;SDS011;41509;53.108;6.100;2024-02-14T14:21:08;5.35;;;3.53;;
55641;SDS011;41509;53.108;6.100;2024-02-14T14:23:34;4.68;;;3.55;;
55641;SDS011;41509;53.108;6.100;2024-02-14T14:25:59;5.00;;;3.58;;
55641;SDS011;41509;53.108;6.100;2024-02-14T14:28:26;6.82;;;3.08;;
55641;SDS011;41509;53.108;6.100;2024-02-14T14:33:21;4.88;;;3.55;;
55641;SDS011;41509;53.108;6.100;2024-02-14T14:35:47;5.68;;;3.65;;
55641;SDS011;41509;53.108;6.100;2024-02-14T14:38:17;4.45;;;3.13;;
55641;SDS011;41509;53.108;6.100;2024-02-14T14:40:43;5.70;;;3.85;;
55641;SDS011;41509;53.108;6.100;2024-02-14T14:43:11;4.38;;;3.03;;
55641;SDS011;41509;53.108;6.100;2024-02-14T14:45:37;5.30;;;3.53;;
55641;SDS011;41509;53.108;6.100;2024-02-14T14:48:03;5.20;;;3.83;;
55641;SDS011;41509;53.108;6.100;2024-02-14T14:50:30;5.35;;;3.50;;
55641;SDS011;41509;53.108;6.100;2024-02-14T14:52:56;6.05;;;3.67;;
55641;SDS011;41509;53.108;6.100;2024-02-14T14:55:23;4.57;;;3.63;;
55641;SDS011;41509;53.108;6.100;2024-02-14T14:57:50;4.70;;;3.28;;
55641;SDS011;41509;53.108;6.100;2024-02-14T15:00:16;4.80;;;3.22;;
55641;SDS011;41509;53.108;6.100;2024-02-14T15:02:43;4.57;;;3.20;;
55641;SDS011;41509;53.108;6.100;2024-02-14T15:05:10;4.28;;;3.30;;
55641;SDS011;41509;53.108;6.100;2024-02-14T15:07:39;5.13;;;3.42;;
55641;SDS011;41509;53.108;6.100;2024-02-14T15:10:05;5.50;;;3.40;;
55641;SDS011;41509;53.108;6.100;2024-02-14T15:12:33;5.20;;;3.33;;
55641;SDS011;41509;53.108;6.100;2024-02-14T15:15:04;6.20;;;3.33;;
55641;SDS011;41509;53.108;6.100;2024-02-14T15:17:30;4.28;;;2.90;;